FMMT

Toamasina Airport

Madagascar
METAR FMMT 250000Z 20006KT 9999 VCSH FEW017 BKN033 24/21 Q1013
Observed Flight Rules
Apr-25 @ 00:00 UTC (44 minutes ago) Visual Flight Rules
Wind Visibility Clouds
200° at 6 knots 10,000+ meters
  • Few at 1,700' AGL
  • Broken at 3,300' AGL
Temperatures Readings
Current 24°C / 75°F
Dewpoint 21°C / 70°F
Humidity 83%
Altimeter 29.91" Hg
Pressure 1013 hPa
Elevation 6
METAR FMMT 250000Z 20006KT 9999 VCSH FEW017 BKN033 24/21 Q1013
Observed Flight Rules
Apr-25 @ 00:00 UTC
(44 minutes ago)
VFR
Wind Visibility
200° at 6 knots 10,000+ meters
Clouds
  • Few at 1,700' AGL
  • Broken at 3,300' AGL
Temperature Dewpoint
24°C / 75°F 21°C / 70°F
Humidity Altimeter Pressure
83% 29.91" Hg 1013 hPa